Portada
METAR-TAF:

METAR-TAF

Aeropuertos :

Aeropuerto Internacional de Bagdad

Bagdad, Iraq

latitud: 33-15-45N, longitud: 44-14-04E, altitud: 35 m

Observación

El informe se hizo hace 24 minutos, a las 17:00 UTC
Viento 6 kt del este
Temperatura 19°C
Humedad 40%
Presión 1019 hPa
Visibilidad 10 km o más
sin nubes por debajo de 1500 m y sin presencia de cumulonimbus.

METAR: ORBI 021700Z 10006KT CAVOK 19/05 Q1019 NOSIG

Hora: 20:24 (17:24 UTC)

Pronóstico

El informe se hizo hace 6 horas y 24 minutos, a las 11:00 UTC
Pronóstico válido del 02 a las 12 UTC al 03 a las 12 UTC
Viento 8 kt del suroeste
Visibilidad: 8000 m

TAF: ORBI 021100Z 0212/0312 22008KT 8000 NSC

Observaciones y pronósticos meteorológicos de más de 4000 aeropuertos (mensajes METAR y TAF).

Los puntos amarillos y rojos representan las estaciones disponibles.

Ponga el ratón en el punto deseado para ver el nombre de la estación.

Haga clic para ver las observaciones y los pronósticos meteorológicos.

Para cambiar el mapa : haga clic en los botones verdes con una cruz de color negro para hacer un zoom, en el botón verde con un guión para alejar o en las flechas verdes para mapas adyacentes.


METAR-TAF: